createdAt,value
2023-05-09T00:00:13.761Z,8.17
2023-05-09T00:02:42.168Z,8.23
2023-05-09T00:05:11.214Z,8.17
2023-05-09T00:07:39.256Z,8.47
2023-05-09T00:10:09.626Z,7.40
2023-05-09T00:12:37.528Z,7.53
2023-05-09T00:15:08.173Z,8.20
2023-05-09T00:17:38.788Z,8.00
2023-05-09T00:20:12.156Z,8.03
2023-05-09T00:22:40.839Z,7.97
2023-05-09T00:25:12.031Z,8.70
2023-05-09T00:27:40.056Z,7.57
2023-05-09T00:30:09.395Z,7.63
2023-05-09T00:32:37.417Z,8.30
2023-05-09T00:35:08.159Z,7.10
2023-05-09T00:37:36.174Z,7.93
2023-05-09T00:40:05.526Z,7.17
2023-05-09T00:42:35.529Z,8.60
2023-05-09T00:45:03.830Z,7.27
2023-05-09T00:47:32.029Z,7.20
2023-05-09T00:50:00.206Z,8.13
2023-05-09T00:52:28.277Z,8.20
2023-05-09T00:54:56.980Z,8.13
2023-05-09T00:57:25.024Z,8.60
2023-05-09T00:59:54.302Z,8.00
2023-05-09T01:02:22.817Z,7.77
2023-05-09T01:04:50.989Z,8.97
2023-05-09T01:07:26.687Z,8.57
2023-05-09T01:10:01.627Z,7.30
2023-05-09T01:12:37.906Z,8.53
2023-05-09T01:15:13.753Z,7.67
2023-05-09T01:17:50.922Z,7.70
2023-05-09T01:20:27.365Z,7.93
2023-05-09T01:23:14.674Z,6.77
2023-05-09T01:25:54.908Z,7.53
2023-05-09T01:28:42.685Z,7.80
2023-05-09T01:31:12.288Z,7.80
2023-05-09T01:33:43.606Z,6.60
2023-05-09T01:36:16.661Z,8.07
2023-05-09T01:38:45.986Z,7.87
2023-05-09T01:41:17.772Z,6.87
2023-05-09T01:43:47.368Z,8.33
2023-05-09T01:46:19.863Z,7.20
2023-05-09T01:48:49.174Z,7.87
2023-05-09T01:51:18.191Z,8.00
2023-05-09T01:53:49.265Z,7.37
2023-05-09T01:56:18.263Z,7.90
2023-05-09T01:58:50.006Z,8.80
2023-05-09T02:01:20.064Z,7.80
2023-05-09T02:03:52.686Z,7.60
2023-05-09T02:06:23.148Z,7.40
2023-05-09T02:08:51.899Z,7.40
2023-05-09T02:11:20.038Z,7.93
2023-05-09T02:13:48.145Z,8.50
2023-05-09T02:16:16.381Z,8.00
2023-05-09T02:18:47.214Z,7.10
2023-05-09T02:21:15.690Z,7.93
2023-05-09T02:23:43.601Z,7.80
2023-05-09T02:26:12.160Z,8.07
2023-05-09T02:28:40.902Z,8.33
2023-05-09T02:31:10.671Z,8.47
2023-05-09T02:33:40.511Z,8.93
2023-05-09T02:36:11.832Z,8.27
2023-05-09T02:38:39.962Z,7.70
2023-05-09T02:41:08.079Z,7.67
2023-05-09T02:43:35.964Z,8.90
2023-05-09T02:46:04.073Z,9.07
2023-05-09T02:48:32.019Z,8.97
2023-05-09T02:50:59.921Z,9.10
2023-05-09T02:53:29.225Z,9.50
2023-05-09T02:55:57.156Z,8.83
2023-05-09T02:58:25.385Z,10.03
2023-05-09T03:00:53.277Z,8.27
2023-05-09T03:03:22.210Z,9.13
2023-05-09T03:05:50.213Z,8.80
2023-05-09T03:08:18.137Z,9.03
2023-05-09T03:10:47.890Z,10.37
2023-05-09T03:13:15.955Z,9.00
2023-05-09T03:15:43.890Z,9.00
2023-05-09T03:18:12.369Z,8.60
2023-05-09T03:20:40.656Z,8.13
2023-05-09T03:23:08.572Z,9.30
2023-05-09T03:25:36.648Z,9.03
2023-05-09T03:28:06.325Z,9.10
2023-05-09T03:30:34.242Z,8.63
2023-05-09T03:33:02.296Z,10.63
2023-05-09T03:35:30.412Z,8.83
2023-05-09T03:37:58.300Z,8.93
2023-05-09T03:40:26.360Z,9.23
2023-05-09T03:42:54.241Z,10.37
2023-05-09T03:45:23.660Z,9.53
2023-05-09T03:47:51.580Z,8.43
2023-05-09T03:50:19.693Z,10.10
2023-05-09T03:52:47.652Z,10.87
2023-05-09T03:55:15.799Z,9.70
2023-05-09T03:57:44.066Z,9.20
2023-05-09T04:00:13.563Z,10.40
2023-05-09T04:02:43.154Z,9.93
2023-05-09T04:05:11.525Z,10.17
2023-05-09T04:07:39.526Z,9.63
2023-05-09T04:10:08.822Z,8.97
2023-05-09T04:12:36.942Z,9.00
2023-05-09T04:15:05.366Z,9.37
2023-05-09T04:17:33.397Z,9.17
2023-05-09T04:20:03.624Z,10.23
2023-05-09T04:22:31.670Z,9.17
2023-05-09T04:24:59.734Z,9.77
2023-05-09T04:27:28.137Z,9.33
2023-05-09T04:29:56.221Z,8.67
2023-05-09T04:32:24.153Z,9.50
2023-05-09T04:34:52.135Z,10.03
2023-05-09T04:37:21.603Z,8.30
2023-05-09T04:39:49.500Z,8.77
2023-05-09T04:42:17.549Z,8.00
2023-05-09T04:44:45.890Z,9.13
2023-05-09T04:47:13.735Z,9.03
2023-05-09T04:49:41.814Z,8.17
2023-05-09T04:52:09.767Z,8.70
2023-05-09T04:54:39.022Z,9.00
2023-05-09T04:57:17.100Z,8.40
2023-05-09T04:59:46.338Z,8.53
2023-05-09T05:02:14.306Z,9.03
2023-05-09T05:04:42.240Z,8.53
2023-05-09T05:07:10.216Z,7.13
2023-05-09T05:09:39.503Z,8.40
2023-05-09T05:12:09.750Z,9.43
2023-05-09T05:14:38.164Z,8.20
2023-05-09T05:17:06.272Z,8.73
2023-05-09T05:19:34.378Z,7.57
2023-05-09T05:22:02.536Z,8.33
2023-05-09T05:24:30.572Z,8.40
2023-05-09T05:26:59.845Z,8.43
2023-05-09T05:29:27.872Z,8.50
2023-05-09T05:31:55.979Z,7.47
2023-05-09T05:34:24.270Z,8.10
2023-05-09T05:36:52.227Z,7.30
2023-05-09T05:39:20.202Z,7.90
2023-05-09T05:41:48.085Z,9.30
2023-05-09T05:44:17.346Z,8.10
2023-05-09T05:46:45.260Z,8.23
2023-05-09T05:49:13.292Z,8.23
2023-05-09T05:51:41.164Z,8.65
2023-05-09T05:54:09.126Z,8.30
2023-05-09T05:56:37.139Z,9.00
2023-05-09T05:59:05.095Z,7.43
2023-05-09T06:01:34.373Z,8.10
2023-05-09T06:04:02.500Z,8.97
2023-05-09T06:06:31.012Z,8.23
2023-05-09T06:08:58.973Z,8.20
2023-05-09T06:11:26.908Z,8.10
2023-05-09T06:13:54.934Z,7.73
2023-05-09T06:16:22.885Z,8.23
2023-05-09T06:18:55.561Z,7.13
2023-05-09T06:21:23.942Z,7.77
2023-05-09T06:24:07.843Z,7.10
2023-05-09T06:26:40.027Z,8.20
2023-05-09T06:29:08.099Z,7.00
2023-05-09T06:31:39.108Z,7.43
2023-05-09T06:34:08.952Z,7.83
2023-05-09T06:36:37.095Z,7.67
2023-05-09T06:39:05.175Z,7.47
2023-05-09T06:41:33.073Z,7.70
2023-05-09T06:44:02.466Z,7.03
2023-05-09T06:46:30.454Z,6.67
2023-05-09T06:48:58.624Z,7.23
2023-05-09T06:51:28.252Z,7.20
2023-05-09T06:53:56.228Z,6.80
2023-05-09T06:56:25.255Z,6.07
2023-05-09T06:58:53.481Z,7.00
2023-05-09T07:01:21.490Z,7.53
2023-05-09T07:03:49.422Z,6.13
2023-05-09T07:06:17.684Z,6.47
2023-05-09T07:08:47.107Z,7.37
2023-05-09T07:11:15.136Z,6.87
2023-05-09T07:13:43.054Z,6.17
2023-05-09T07:16:11.034Z,6.70
2023-05-09T07:18:39.279Z,7.83
2023-05-09T07:21:07.362Z,7.40
2023-05-09T07:23:35.423Z,7.20
2023-05-09T07:26:04.839Z,7.17
2023-05-09T07:28:32.836Z,7.50
2023-05-09T07:31:00.851Z,7.47
2023-05-09T07:33:28.788Z,7.70
2023-05-09T07:35:56.678Z,6.53
2023-05-09T07:38:24.596Z,6.63
2023-05-09T07:40:53.170Z,6.40
2023-05-09T07:43:22.593Z,6.90
2023-05-09T07:45:50.563Z,7.73
2023-05-09T07:48:18.549Z,6.80
2023-05-09T07:50:46.413Z,6.80
2023-05-09T07:53:14.333Z,7.03
2023-05-09T07:55:42.262Z,6.90
2023-05-09T07:58:10.283Z,7.22
2023-05-09T08:00:39.569Z,7.40
2023-05-09T08:03:07.843Z,6.50
2023-05-09T08:05:36.107Z,6.50
2023-05-09T08:08:04.106Z,5.47
2023-05-09T08:10:33.798Z,6.63
2023-05-09T08:13:02.216Z,6.33
2023-05-09T08:15:31.278Z,6.73
2023-05-09T08:18:00.585Z,6.00
2023-05-09T08:20:28.708Z,6.60
2023-05-09T08:22:56.575Z,6.50
2023-05-09T08:25:24.720Z,6.67
2023-05-09T08:27:53.133Z,6.10
2023-05-09T08:30:21.297Z,5.97
2023-05-09T08:32:49.306Z,6.83
2023-05-09T08:35:18.771Z,6.77
2023-05-09T08:37:47.824Z,5.97
2023-05-09T08:40:16.966Z,6.23
2023-05-09T08:42:46.314Z,6.07
2023-05-09T08:45:15.992Z,6.67
2023-05-09T08:47:43.973Z,6.53
2023-05-09T08:50:15.583Z,6.73
2023-05-09T08:52:45.480Z,5.97
2023-05-09T08:55:13.618Z,6.60
2023-05-09T08:57:42.230Z,6.20
2023-05-09T09:00:13.872Z,7.17
2023-05-09T09:02:42.530Z,6.30
2023-05-09T09:05:23.841Z,8.07
2023-05-09T09:08:01.816Z,6.00
2023-05-09T09:10:32.836Z,6.30
2023-05-09T09:13:01.768Z,5.63
2023-05-09T09:15:31.577Z,7.37
2023-05-09T09:18:07.128Z,6.57
2023-05-09T09:20:36.591Z,5.63
2023-05-09T09:23:10.634Z,6.27
2023-05-09T09:25:38.646Z,5.73
2023-05-09T09:28:06.891Z,6.20
2023-05-09T09:30:34.903Z,5.17
2023-05-09T09:33:03.673Z,5.37
2023-05-09T09:35:39.936Z,4.97
2023-05-09T09:38:09.458Z,5.70
2023-05-09T09:40:39.243Z,5.53
2023-05-09T09:43:08.301Z,4.83
2023-05-09T09:45:36.626Z,5.10
2023-05-09T09:48:08.140Z,5.37
2023-05-09T09:50:36.268Z,4.90
2023-05-09T09:53:04.405Z,5.23
2023-05-09T09:55:36.530Z,4.53
2023-05-09T09:58:17.020Z,4.70
2023-05-09T10:00:45.838Z,5.60
2023-05-09T10:03:16.584Z,4.80
2023-05-09T10:05:45.152Z,5.40
2023-05-09T10:08:13.067Z,5.60
2023-05-09T10:10:42.765Z,5.70
2023-05-09T10:13:13.033Z,5.67
2023-05-09T10:15:53.119Z,5.13
2023-05-09T10:18:26.507Z,5.10
2023-05-09T10:20:55.098Z,6.00
2023-05-09T10:23:25.156Z,5.40
2023-05-09T10:26:01.617Z,5.43
2023-05-09T10:28:33.618Z,6.60
2023-05-09T10:31:08.750Z,6.43
2023-05-09T10:33:44.117Z,6.50
2023-05-09T10:36:13.213Z,5.23
2023-05-09T10:38:41.588Z,5.17
2023-05-09T10:41:12.382Z,6.40
2023-05-09T10:43:40.612Z,6.23
2023-05-09T10:46:08.779Z,5.60
2023-05-09T10:48:38.243Z,6.10
2023-05-09T10:51:06.759Z,5.00
2023-05-09T10:53:44.649Z,6.17
2023-05-09T10:56:26.553Z,5.10
2023-05-09T10:58:55.504Z,5.60
2023-05-09T11:01:32.776Z,5.57
2023-05-09T11:04:01.817Z,6.20
2023-05-09T11:06:50.995Z,6.23
2023-05-09T11:09:41.592Z,5.90
2023-05-09T11:12:12.511Z,5.40
2023-05-09T11:14:45.722Z,6.67
2023-05-09T11:17:15.184Z,7.00
2023-05-09T11:20:00.280Z,6.90
2023-05-09T11:22:30.708Z,7.80
2023-05-09T11:25:05.983Z,7.20
2023-05-09T11:27:42.386Z,7.10
2023-05-09T11:30:12.365Z,7.33
2023-05-09T11:32:46.506Z,8.47
2023-05-09T11:35:16.295Z,9.20
2023-05-09T11:37:49.800Z,8.23
2023-05-09T11:40:19.414Z,8.20
2023-05-09T11:42:49.948Z,7.80
2023-05-09T11:45:18.900Z,8.70
2023-05-09T11:47:47.573Z,9.10
2023-05-09T11:50:17.358Z,9.00
2023-05-09T11:52:45.305Z,8.57
2023-05-09T11:55:15.489Z,9.63
2023-05-09T11:57:46.388Z,8.87
2023-05-09T12:00:17.553Z,8.53
2023-05-09T12:02:46.747Z,9.73
2023-05-09T12:05:17.083Z,7.53
2023-05-09T12:07:45.709Z,8.20
2023-05-09T12:10:15.791Z,8.90
2023-05-09T12:12:46.018Z,8.80
2023-05-09T12:15:16.017Z,8.57
2023-05-09T12:17:45.459Z,9.00
2023-05-09T12:20:14.414Z,9.90
2023-05-09T12:22:44.661Z,8.50
2023-05-09T12:25:13.034Z,8.70
2023-05-09T12:27:41.841Z,8.77
2023-05-09T12:30:12.030Z,8.77
2023-05-09T12:32:42.630Z,9.67
2023-05-09T12:35:11.499Z,8.50
2023-05-09T12:37:39.830Z,8.53
2023-05-09T12:40:12.657Z,8.30
2023-05-09T12:42:44.401Z,8.30
2023-05-09T12:45:13.039Z,9.17
2023-05-09T12:47:42.853Z,9.60
2023-05-09T12:50:13.170Z,9.70
2023-05-09T12:52:58.545Z,9.30
2023-05-09T12:55:31.677Z,9.83
2023-05-09T12:58:01.843Z,8.90
2023-05-09T13:00:30.177Z,9.60
2023-05-09T13:02:59.696Z,10.10
2023-05-09T13:05:27.731Z,9.90
2023-05-09T13:07:58.658Z,9.03
2023-05-09T13:10:28.896Z,8.43
2023-05-09T13:12:57.304Z,8.60
2023-05-09T13:15:27.063Z,10.20
2023-05-09T13:17:55.460Z,9.37
2023-05-09T13:20:24.849Z,9.67
2023-05-09T13:22:52.788Z,9.40
2023-05-09T13:25:21.256Z,8.40
2023-05-09T13:27:49.169Z,8.53
2023-05-09T13:30:18.168Z,9.00
2023-05-09T13:32:47.460Z,9.03
2023-05-09T13:35:16.160Z,8.23
2023-05-09T13:37:45.583Z,9.33
2023-05-09T13:40:14.711Z,9.30
2023-05-09T13:42:42.768Z,8.00
2023-05-09T13:45:11.787Z,8.87
2023-05-09T13:47:39.725Z,8.47
2023-05-09T13:50:09.099Z,8.57
2023-05-09T13:52:37.019Z,9.05
2023-05-09T13:55:07.123Z,6.80
2023-05-09T13:57:35.040Z,7.87
2023-05-09T14:00:03.415Z,8.10
2023-05-09T14:02:31.418Z,7.87
2023-05-09T14:05:00.034Z,7.07
2023-05-09T14:07:28.353Z,6.97
2023-05-09T14:10:08.377Z,7.63
2023-05-09T14:12:47.092Z,7.90
2023-05-09T14:15:16.237Z,7.33
2023-05-09T14:17:44.454Z,6.77
2023-05-09T14:20:15.751Z,8.20
2023-05-09T14:22:43.865Z,8.87
2023-05-09T14:25:11.877Z,8.00
2023-05-09T14:27:39.924Z,7.50
2023-05-09T14:30:10.633Z,7.80
2023-05-09T14:32:38.493Z,7.45
2023-05-09T14:35:07.610Z,7.00
2023-05-09T14:37:35.783Z,6.07
2023-05-09T14:40:05.707Z,7.00
2023-05-09T14:42:33.967Z,6.60
2023-05-09T14:45:01.977Z,7.47
2023-05-09T14:47:31.332Z,7.00
2023-05-09T14:49:59.876Z,6.53
2023-05-09T14:52:28.752Z,6.07
2023-05-09T14:54:56.856Z,7.33
2023-05-09T14:57:24.903Z,7.87
2023-05-09T14:59:52.862Z,6.03
2023-05-09T15:02:20.752Z,6.72
2023-05-09T15:04:50.131Z,4.73
2023-05-09T15:07:18.517Z,6.50
2023-05-09T15:09:46.642Z,4.90
2023-05-09T15:12:14.621Z,6.97
2023-05-09T15:14:42.794Z,6.70
2023-05-09T15:17:10.734Z,5.10
2023-05-09T15:19:38.730Z,5.30
2023-05-09T15:22:09.215Z,6.50
2023-05-09T15:24:37.147Z,5.32
2023-05-09T15:27:05.108Z,5.60
2023-05-09T15:29:33.060Z,6.40
2023-05-09T15:32:00.968Z,6.30
2023-05-09T15:34:28.961Z,5.40
2023-05-09T15:36:56.993Z,6.07
2023-05-09T15:39:27.142Z,4.90
2023-05-09T15:41:55.054Z,5.83
2023-05-09T15:44:22.952Z,6.40
2023-05-09T15:46:50.847Z,6.97
2023-05-09T15:49:18.926Z,5.10
2023-05-09T15:51:46.805Z,5.17
2023-05-09T15:54:15.007Z,5.10
2023-05-09T15:56:44.924Z,5.37
2023-05-09T15:59:12.825Z,5.17
2023-05-09T16:01:40.793Z,4.93
2023-05-09T16:04:09.115Z,5.67
2023-05-09T16:06:37.806Z,5.13
2023-05-09T16:09:05.891Z,5.43
2023-05-09T16:11:34.322Z,4.87
2023-05-09T16:14:05.118Z,4.73
2023-05-09T16:16:33.406Z,5.60
2023-05-09T16:19:02.412Z,5.20
2023-05-09T16:21:32.898Z,5.40
2023-05-09T16:24:02.835Z,5.33
2023-05-09T16:26:30.917Z,4.93
2023-05-09T16:28:59.126Z,4.47
2023-05-09T16:31:28.480Z,5.80
2023-05-09T16:33:56.597Z,4.80
2023-05-09T16:36:24.584Z,5.20
2023-05-09T16:38:52.517Z,5.87
2023-05-09T16:41:20.409Z,5.63
2023-05-09T16:43:48.388Z,4.70
2023-05-09T16:46:16.396Z,5.20
2023-05-09T16:48:45.790Z,3.95
2023-05-09T16:51:13.718Z,4.97
2023-05-09T16:53:41.654Z,4.80
2023-05-09T16:56:11.051Z,4.60
2023-05-09T16:58:39.017Z,4.97
2023-05-09T17:01:07.001Z,5.20
2023-05-09T17:03:35.131Z,4.90
2023-05-09T17:06:04.895Z,5.03
2023-05-09T17:08:32.992Z,4.77
2023-05-09T17:11:00.925Z,4.57
2023-05-09T17:13:29.287Z,4.37
2023-05-09T17:15:57.393Z,4.80
2023-05-09T17:18:36.097Z,4.00
2023-05-09T17:21:07.710Z,4.80
2023-05-09T17:23:35.664Z,4.20
2023-05-09T17:26:03.917Z,5.00
2023-05-09T17:28:31.815Z,4.37
2023-05-09T17:30:59.839Z,4.23
2023-05-09T17:33:27.845Z,4.80
2023-05-09T17:35:55.788Z,4.47
2023-05-09T17:38:25.187Z,4.40
2023-05-09T17:40:53.464Z,4.20
2023-05-09T17:43:22.169Z,4.47
2023-05-09T17:45:51.023Z,4.70
2023-05-09T17:48:19.047Z,5.57
2023-05-09T17:50:47.147Z,3.93
2023-05-09T17:53:15.029Z,4.87
2023-05-09T17:55:44.565Z,5.22
2023-05-09T17:58:12.621Z,5.80
2023-05-09T18:00:40.825Z,4.47
2023-05-09T18:03:08.844Z,5.00
2023-05-09T18:05:36.910Z,5.73
2023-05-09T18:08:05.852Z,4.77
2023-05-09T18:10:34.138Z,5.40
2023-05-09T18:13:03.499Z,4.83
2023-05-09T18:15:33.609Z,5.20
2023-05-09T18:18:01.544Z,4.85
2023-05-09T18:20:29.470Z,5.23
2023-05-09T18:22:57.417Z,3.87
2023-05-09T18:25:25.617Z,4.73
2023-05-09T18:27:53.539Z,4.73
2023-05-09T18:30:23.288Z,4.47
2023-05-09T18:32:51.698Z,4.50
2023-05-09T18:35:19.836Z,5.07
2023-05-09T18:37:47.737Z,4.97
2023-05-09T18:40:16.263Z,4.77
2023-05-09T18:42:44.395Z,4.80
2023-05-09T18:45:13.428Z,4.70
2023-05-09T18:47:42.824Z,4.73
2023-05-09T18:50:13.536Z,3.97
2023-05-09T18:52:41.658Z,4.63
2023-05-09T18:55:10.326Z,4.60
2023-05-09T18:57:38.253Z,5.30
2023-05-09T19:00:07.143Z,3.90
2023-05-09T19:02:35.137Z,4.70
2023-05-09T19:05:07.180Z,4.97
2023-05-09T19:07:35.264Z,4.80
2023-05-09T19:10:04.301Z,5.00
2023-05-09T19:12:32.959Z,5.23
2023-05-09T19:15:00.988Z,4.20
2023-05-09T19:17:29.036Z,4.90
2023-05-09T19:19:57.047Z,4.20
2023-05-09T19:22:26.517Z,4.40
2023-05-09T19:24:54.432Z,4.60
2023-05-09T19:27:22.358Z,3.80
2023-05-09T19:29:50.281Z,4.83
2023-05-09T19:32:19.127Z,4.70
2023-05-09T19:34:47.330Z,5.40
2023-05-09T19:37:15.589Z,4.60
2023-05-09T19:39:44.862Z,4.43
2023-05-09T19:42:12.780Z,4.43
2023-05-09T19:44:40.833Z,4.33
2023-05-09T19:47:10.046Z,4.63
2023-05-09T19:49:38.479Z,4.27
2023-05-09T19:52:06.646Z,4.93
2023-05-09T19:54:34.707Z,4.23
2023-05-09T19:57:06.240Z,4.03
2023-05-09T19:59:34.314Z,4.97
2023-05-09T20:02:02.312Z,4.50
2023-05-09T20:04:36.161Z,3.83
2023-05-09T20:07:04.359Z,4.33
2023-05-09T20:09:33.162Z,5.23
2023-05-09T20:12:04.521Z,4.53
2023-05-09T20:14:32.807Z,4.00
2023-05-09T20:17:01.083Z,4.47
2023-05-09T20:19:29.054Z,5.37
2023-05-09T20:21:57.246Z,4.67
2023-05-09T20:24:25.153Z,4.73
2023-05-09T20:26:55.085Z,4.50
2023-05-09T20:29:25.787Z,4.97
2023-05-09T20:31:53.884Z,4.30
2023-05-09T20:34:24.461Z,4.50
2023-05-09T20:36:53.833Z,3.70
2023-05-09T20:39:23.069Z,4.67
2023-05-09T20:41:51.574Z,4.00
2023-05-09T20:44:19.752Z,4.47
2023-05-09T20:46:49.169Z,4.53
2023-05-09T20:49:17.131Z,4.20
2023-05-09T20:51:45.031Z,4.60
2023-05-09T20:54:13.018Z,4.00
2023-05-09T20:56:41.060Z,4.30
2023-05-09T20:59:08.995Z,4.10
2023-05-09T21:01:37.096Z,4.57
2023-05-09T21:04:08.450Z,4.17
2023-05-09T21:06:37.168Z,6.10
2023-05-09T21:09:06.356Z,4.70
2023-05-09T21:11:34.249Z,4.80
2023-05-09T21:14:02.181Z,4.00
2023-05-09T21:16:30.200Z,4.10
2023-05-09T21:18:59.400Z,2.87
2023-05-09T21:21:29.022Z,3.20
2023-05-09T21:23:56.880Z,3.07
2023-05-09T21:26:24.788Z,2.60
2023-05-09T21:28:52.872Z,2.37
2023-05-09T21:31:20.775Z,1.80
2023-05-09T21:33:48.829Z,3.13
2023-05-09T21:36:16.708Z,1.60
2023-05-09T21:38:46.188Z,1.70
2023-05-09T21:41:14.130Z,2.00
2023-05-09T21:43:42.201Z,1.30
2023-05-09T21:46:11.433Z,1.80
2023-05-09T21:48:39.534Z,1.30
2023-05-09T21:51:08.570Z,1.43
2023-05-09T21:53:36.511Z,1.07
2023-05-09T21:56:06.738Z,1.10
2023-05-09T21:58:34.680Z,1.00
2023-05-09T22:01:02.582Z,1.30
2023-05-09T22:03:30.810Z,1.40
2023-05-09T22:05:58.808Z,1.10
2023-05-09T22:08:26.712Z,0.93
2023-05-09T22:10:54.731Z,1.00
2023-05-09T22:13:24.118Z,1.13
2023-05-09T22:15:52.279Z,1.20
2023-05-09T22:18:20.312Z,0.90
2023-05-09T22:20:48.288Z,0.90
2023-05-09T22:23:16.256Z,1.50
2023-05-09T22:25:44.263Z,0.77
2023-05-09T22:28:12.188Z,1.10
2023-05-09T22:30:41.668Z,1.30
2023-05-09T22:33:09.725Z,1.30
2023-05-09T22:35:37.657Z,1.00
2023-05-09T22:38:05.778Z,1.07
2023-05-09T22:40:34.216Z,1.00
2023-05-09T22:43:02.155Z,1.00
2023-05-09T22:45:30.845Z,0.90
2023-05-09T22:48:00.262Z,1.03
2023-05-09T22:50:28.412Z,0.90
2023-05-09T22:52:56.457Z,1.00
2023-05-09T22:55:24.556Z,0.87
2023-05-09T22:57:52.507Z,0.90
2023-05-09T23:00:20.632Z,0.90
2023-05-09T23:02:48.752Z,0.70
2023-05-09T23:05:18.561Z,1.00
2023-05-09T23:07:46.655Z,1.00
2023-05-09T23:10:14.818Z,1.00
2023-05-09T23:12:43.047Z,1.07
2023-05-09T23:15:11.594Z,1.20
2023-05-09T23:17:39.873Z,2.03
2023-05-09T23:20:08.773Z,0.93
2023-05-09T23:22:38.041Z,1.20
2023-05-09T23:25:07.211Z,1.13
2023-05-09T23:27:35.110Z,1.10
2023-05-09T23:30:03.033Z,1.87
2023-05-09T23:32:31.070Z,1.07
2023-05-09T23:34:59.105Z,1.23
2023-05-09T23:37:27.157Z,1.20
2023-05-09T23:39:56.760Z,1.43
2023-05-09T23:42:24.777Z,1.33
2023-05-09T23:44:52.856Z,1.07
2023-05-09T23:47:20.742Z,1.27
2023-05-09T23:49:48.727Z,0.90
2023-05-09T23:52:16.946Z,1.20
2023-05-09T23:54:44.819Z,1.37
2023-05-09T23:57:14.283Z,1.20
2023-05-09T23:59:42.730Z,1.00
